Time;durP1;ratioP1;P1;durP2;ratioP2;P2;SDS_P1;SDS_P2;PMS_P1;PMS_P2;Temp;Humidity;BMP_temperature;BMP_pressure;BME280_temperature;BME280_humidity;BME280_pressure;Samples;Min_cycle;Max_cycle;Signal;HPM_P1;HPM_P2
2021/07/09 03:40:23;;;;;;;7.07;5.03;;;15.50;99.90;;;;;;5806899;23;20558;-71
2021/07/09 03:42:48;;;;;;;7.32;6.38;;;15.50;99.90;;;;;;5012100;28;20026;-69
2021/07/09 03:45:14;;;;;;;5.90;4.55;;;15.50;99.90;;;;;;5007662;28;20479;-72
2021/07/09 03:47:40;;;;;;;7.65;4.55;;;15.50;99.90;;;;;;5004473;28;20060;-72
2021/07/09 03:50:06;;;;;;;7.75;4.82;;;15.50;99.90;;;;;;5007579;28;20104;-69
2021/07/09 03:52:32;;;;;;;6.30;4.18;;;15.50;99.90;;;;;;5030980;28;20032;-71
2021/07/09 03:54:58;;;;;;;5.63;3.83;;;15.40;99.90;;;;;;5029792;28;20022;-71
2021/07/09 03:57:23;;;;;;;5.43;4.28;;;15.40;99.90;;;;;;5030822;28;20026;-70
2021/07/09 03:59:49;;;;;;;3.92;3.70;;;15.40;99.90;;;;;;5030331;28;20438;-71
2021/07/09 04:02:15;;;;;;;4.68;3.85;;;15.40;99.90;;;;;;5030875;28;20032;-72
2021/07/09 04:04:40;;;;;;;11.65;4.10;;;15.40;99.90;;;;;;5030837;28;20049;-69
2021/07/09 04:07:06;;;;;;;5.75;4.25;;;15.40;99.90;;;;;;5011509;28;20464;-71
2021/07/09 04:09:32;;;;;;;5.18;4.20;;;15.50;99.90;;;;;;5018993;28;20026;-71
2021/07/09 04:11:58;;;;;;;7.22;3.88;;;15.50;99.90;;;;;;4999063;28;20029;-70
2021/07/09 04:14:24;;;;;;;7.43;3.72;;;15.40;99.90;;;;;;5004263;28;20057;-71
2021/07/09 04:16:49;;;;;;;5.22;3.83;;;15.40;99.90;;;;;;5005266;28;20065;-71
2021/07/09 04:19:15;;;;;;;6.25;3.13;;;15.40;99.90;;;;;;5006835;28;20707;-71
2021/07/09 04:21:41;;;;;;;5.45;3.65;;;15.30;99.90;;;;;;5030162;28;20025;-70
2021/07/09 04:24:06;;;;;;;3.60;3.30;;;15.40;99.90;;;;;;5030954;28;20057;-70
2021/07/09 04:26:32;;;;;;;5.82;3.78;;;15.40;99.90;;;;;;5030302;28;20025;-70
2021/07/09 04:28:58;;;;;;;5.03;3.65;;;15.40;99.90;;;;;;5031156;28;20033;-70
2021/07/09 04:31:24;;;;;;;4.38;3.08;;;15.50;99.90;;;;;;5030895;28;20029;-71
2021/07/09 04:33:50;;;;;;;6.95;3.30;;;15.40;99.90;;;;;;5033318;28;20105;-72
2021/07/09 04:36:17;;;;;;;7.40;3.97;;;15.40;99.90;;;;;;5034540;28;20471;-71
2021/07/09 04:38:43;;;;;;;5.20;3.80;;;15.40;99.90;;;;;;5016586;28;20048;-71
2021/07/09 04:41:09;;;;;;;3.58;3.28;;;15.50;99.90;;;;;;5016636;28;20061;-71
2021/07/09 04:43:38;;;;;;;6.97;3.40;;;15.50;99.90;;;;;;5015105;28;20126;-70
2021/07/09 04:46:05;;;;;;;4.05;3.30;;;15.50;99.90;;;;;;5014948;28;20029;-71
2021/07/09 04:48:31;;;;;;;6.13;3.30;;;15.50;99.90;;;;;;5015240;28;20022;-71
2021/07/09 04:50:56;;;;;;;4.70;3.08;;;15.60;99.90;;;;;;5015228;28;20028;-71
2021/07/09 04:53:22;;;;;;;4.18;3.25;;;15.60;99.90;;;;;;5016073;28;20029;-71
2021/07/09 04:55:48;;;;;;;6.00;3.17;;;15.70;99.90;;;;;;5015982;28;20026;-70
2021/07/09 04:58:14;;;;;;;3.03;2.80;;;15.70;99.90;;;;;;5014082;28;20077;-76
2021/07/09 05:00:39;;;;;;;2.95;2.75;;;15.60;99.90;;;;;;5012730;28;20030;-71
2021/07/09 05:03:05;;;;;;;3.45;3.25;;;15.60;99.90;;;;;;5014618;28;20029;-73
2021/07/09 05:05:31;;;;;;;3.47;3.00;;;15.70;99.90;;;;;;5015110;28;20096;-73
2021/07/09 05:07:56;;;;;;;8.82;3.05;;;16.10;99.90;;;;;;5014367;28;20104;-73
2021/07/09 05:10:22;;;;;;;4.72;3.05;;;16.50;99.90;;;;;;5013272;28;20100;-73
2021/07/09 05:12:48;;;;;;;6.22;3.35;;;16.90;99.90;;;;;;5013782;28;20049;-73
2021/07/09 05:15:13;;;;;;;5.05;2.63;;;17.00;99.90;;;;;;5013871;28;20045;-73
2021/07/09 05:17:39;;;;;;;3.17;2.88;;;17.10;99.90;;;;;;5013949;28;20558;-74
2021/07/09 05:20:06;;;;;;;6.18;3.30;;;17.10;99.90;;;;;;5010715;28;20022;-70
2021/07/09 05:22:32;;;;;;;2.95;2.70;;;16.80;99.90;;;;;;4998999;28;20026;-70
2021/07/09 05:24:58;;;;;;;4.95;3.10;;;16.30;99.90;;;;;;5001128;28;20058;-72
2021/07/09 05:27:26;;;;;;;8.80;3.38;;;16.20;99.90;;;;;;4994528;28;20461;-73
2021/07/09 05:29:52;;;;;;;4.45;3.03;;;16.10;99.90;;;;;;4993832;28;20023;-72
2021/07/09 05:32:27;;;;;;;6.30;3.47;;;16.10;99.90;;;;;;4994243;28;20030;-70
2021/07/09 05:34:55;;;;;;;6.10;3.40;;;16.20;99.90;;;;;;4976831;28;20027;-70
2021/07/09 05:37:21;;;;;;;3.42;3.00;;;16.30;99.90;;;;;;4993933;28;20023;-70
2021/07/09 05:39:47;;;;;;;7.70;3.30;;;16.10;99.90;;;;;;5016132;28;20022;-70
2021/07/09 05:42:14;;;;;;;3.17;2.95;;;16.00;99.90;;;;;;5013677;28;20030;-71
2021/07/09 05:44:41;;;;;;;5.35;3.25;;;16.00;99.90;;;;;;5012493;28;20029;-71
2021/07/09 05:47:07;;;;;;;4.28;3.10;;;15.80;99.90;;;;;;4996218;28;20113;-71
2021/07/09 05:49:33;;;;;;;6.10;3.63;;;15.80;99.90;;;;;;5013111;28;20026;-71
2021/07/09 05:51:59;;;;;;;3.15;2.92;;;15.80;99.90;;;;;;5013273;28;20464;-72
2021/07/09 05:54:25;;;;;;;7.30;3.20;;;15.80;99.90;;;;;;5012803;28;20026;-71
2021/07/09 05:56:53;;;;;;;3.53;3.00;;;15.90;99.90;;;;;;5011694;28;20022;-72
2021/07/09 05:59:19;;;;;;;3.65;2.90;;;16.00;99.90;;;;;;5010967;28;20495;-71
2021/07/09 06:01:44;;;;;;;3.38;2.70;;;16.00;99.90;;;;;;5011032;28;20038;-70
2021/07/09 06:04:11;;;;;;;3.33;3.10;;;16.00;99.90;;;;;;5006657;28;20466;-71
2021/07/09 06:06:37;;;;;;;3.58;2.60;;;16.10;99.90;;;;;;5013909;28;20500;-71
2021/07/09 06:09:02;;;;;;;4.75;2.97;;;16.20;99.90;;;;;;5003792;28;20061;-70
2021/07/09 06:11:29;;;;;;;7.05;3.13;;;16.50;99.90;;;;;;5012756;28;20033;-72
2021/07/09 06:13:55;;;;;;;3.80;3.00;;;16.60;99.90;;;;;;5014009;28;20074;-71
2021/07/09 06:16:21;;;;;;;7.95;3.08;;;16.60;99.90;;;;;;5030166;28;20033;-72
2021/07/09 06:18:50;;;;;;;4.22;3.35;;;16.70;99.90;;;;;;5023376;28;20032;-71
2021/07/09 06:21:16;;;;;;;5.68;3.22;;;16.60;99.90;;;;;;5028968;28;20025;-70
2021/07/09 06:23:42;;;;;;;5.40;3.15;;;16.60;99.90;;;;;;5021129;28;20043;-70
2021/07/09 06:26:08;;;;;;;10.40;4.05;;;16.60;99.90;;;;;;5032816;28;20471;-71
2021/07/09 06:28:34;;;;;;;4.05;3.65;;;16.60;99.90;;;;;;5022607;28;20064;-71
2021/07/09 06:31:00;;;;;;;5.55;3.05;;;16.60;99.90;;;;;;5021193;28;20057;-71
2021/07/09 06:33:26;;;;;;;4.75;3.17;;;16.70;99.90;;;;;;5029627;28;20030;-70
2021/07/09 06:35:51;;;;;;;4.28;3.22;;;16.70;99.90;;;;;;5032935;28;20044;-71
2021/07/09 06:38:17;;;;;;;9.20;3.30;;;16.70;99.90;;;;;;5026053;28;20036;-72
2021/07/09 06:40:44;;;;;;;4.93;3.33;;;16.60;99.90;;;;;;5010392;28;20052;-71
2021/07/09 06:43:11;;;;;;;3.70;3.00;;;16.60;99.90;;;;;;5025329;28;20033;-71
2021/07/09 06:45:40;;;;;;;6.22;3.60;;;16.50;99.90;;;;;;5022074;28;20418;-70
2021/07/09 06:48:07;;;;;;;3.85;3.55;;;16.70;99.90;;;;;;5022566;28;20773;-71
2021/07/09 06:50:34;;;;;;;7.70;4.03;;;16.90;99.90;;;;;;5023405;28;20406;-72
2021/07/09 06:53:00;;;;;;;5.55;3.42;;;17.20;99.90;;;;;;5019954;28;20101;-72
2021/07/09 06:55:25;;;;;;;5.95;3.05;;;17.60;99.90;;;;;;5029344;28;20132;-73
2021/07/09 06:57:51;;;;;;;5.25;2.78;;;17.50;99.90;;;;;;5010580;28;20117;-71
2021/07/09 07:00:18;;;;;;;5.78;3.15;;;17.40;99.90;;;;;;5021261;28;20030;-72
2021/07/09 07:02:48;;;;;;;3.35;3.13;;;17.50;99.90;;;;;;5009895;28;20386;-72
2021/07/09 07:05:15;;;;;;;3.63;3.40;;;17.50;99.90;;;;;;5027262;28;20018;-73
2021/07/09 07:07:41;;;;;;;10.70;6.13;;;17.60;99.90;;;;;;4994418;28;20430;-76
2021/07/09 07:10:09;;;;;;;3.63;2.83;;;17.90;99.90;;;;;;5025338;28;20021;-73
2021/07/09 07:12:35;;;;;;;5.70;2.85;;;18.40;99.90;;;;;;5023876;28;20026;-72
2021/07/09 07:15:02;;;;;;;29.67;4.20;;;17.90;99.90;;;;;;5026421;28;20488;-73
2021/07/09 07:17:28;;;;;;;7.15;2.67;;;17.90;99.90;;;;;;5031959;28;20655;-71
2021/07/09 07:19:54;;;;;;;3.47;2.97;;;17.90;99.90;;;;;;5000259;28;20018;-72
2021/07/09 07:22:19;;;;;;;2.80;2.55;;;17.70;99.90;;;;;;5029100;28;20130;-72
2021/07/09 07:24:48;;;;;;;2.80;2.55;;;17.60;99.90;;;;;;5019766;28;20083;-71
2021/07/09 07:27:14;;;;;;;2.88;2.53;;;17.80;99.90;;;;;;5014087;28;20141;-71
2021/07/09 07:29:40;;;;;;;7.30;2.90;;;18.00;99.90;;;;;;5015040;28;20045;-72
2021/07/09 07:32:06;;;;;;;4.80;2.90;;;18.20;99.90;;;;;;5030999;28;20111;-72
2021/07/09 07:34:32;;;;;;;5.13;2.63;;;18.30;99.90;;;;;;4999333;28;20629;-72
2021/07/09 07:36:58;;;;;;;4.85;2.47;;;18.20;99.90;;;;;;4991074;28;20062;-71
2021/07/09 07:39:23;;;;;;;4.75;2.97;;;18.40;99.90;;;;;;4991848;28;20374;-70
2021/07/09 07:41:49;;;;;;;2.97;2.78;;;18.50;99.90;;;;;;4986026;28;20031;-70
2021/07/09 07:44:15;;;;;;;3.22;2.50;;;18.50;99.90;;;;;;4976210;28;20030;-71
2021/07/09 07:46:40;;;;;;;4.95;3.13;;;18.40;99.90;;;;;;4991606;28;20517;-70
2021/07/09 07:49:06;;;;;;;5.80;2.90;;;18.50;99.90;;;;;;4991867;28;20026;-70
2021/07/09 07:51:32;;;;;;;3.58;2.80;;;18.80;99.90;;;;;;4990658;28;20472;-71
2021/07/09 07:53:57;;;;;;;5.82;2.92;;;19.00;99.90;;;;;;4991474;28;20480;-70
2021/07/09 07:56:23;;;;;;;3.03;2.65;;;19.10;99.90;;;;;;4991773;28;20026;-71
2021/07/09 07:58:51;;;;;;;4.22;2.92;;;18.70;99.90;;;;;;4998207;28;20026;-70
2021/07/09 08:01:17;;;;;;;3.47;3.03;;;18.90;99.90;;;;;;5010710;28;20026;-71
2021/07/09 08:03:43;;;;;;;4.00;2.17;;;19.00;99.90;;;;;;5011504;28;20018;-72
2021/07/09 08:06:09;;;;;;;3.20;2.95;;;19.00;99.90;;;;;;5011333;28;20022;-72
2021/07/09 08:08:37;;;;;;;3.83;2.50;;;19.20;99.90;;;;;;5011793;28;20026;-71
2021/07/09 08:11:03;;;;;;;2.75;2.22;;;19.40;99.90;;;;;;5014793;28;20018;-73
2021/07/09 08:13:29;;;;;;;3.90;2.40;;;19.50;99.90;;;;;;5015109;28;20341;-72
2021/07/09 08:15:54;;;;;;;5.53;3.05;;;19.40;99.90;;;;;;5015021;28;20065;-70
2021/07/09 08:18:20;;;;;;;2.47;2.28;;;19.30;99.90;;;;;;5015146;28;20042;-74
2021/07/09 08:20:46;;;;;;;7.90;3.05;;;19.30;99.90;;;;;;4996338;28;20376;-72
2021/07/09 08:23:11;;;;;;;3.00;2.70;;;19.60;99.90;;;;;;4995541;28;20069;-71
2021/07/09 08:25:37;;;;;;;6.90;2.80;;;19.40;99.90;;;;;;4995525;28;20089;-71
2021/07/09 08:28:03;;;;;;;3.78;2.45;;;19.40;99.90;;;;;;4995284;28;20026;-70
2021/07/09 08:30:29;;;;;;;2.88;2.55;;;19.70;99.90;;;;;;4994880;28;20744;-72
2021/07/09 08:32:55;;;;;;;3.80;2.40;;;20.00;99.90;;;;;;4995306;28;20061;-73
2021/07/09 08:35:22;;;;;;;6.38;2.45;;;20.30;99.90;;;;;;4995423;28;20040;-72
2021/07/09 08:37:47;;;;;;;4.07;2.25;;;20.60;99.90;;;;;;4995476;28;20470;-70
2021/07/09 08:40:13;;;;;;;3.42;2.20;;;20.70;99.90;;;;;;4994265;28;20114;-72
2021/07/09 08:42:39;;;;;;;2.75;2.17;;;20.50;99.90;;;;;;5007988;28;20034;-70
2021/07/09 08:45:06;;;;;;;2.20;2.10;;;20.60;99.90;;;;;;5014909;28;20369;-70
2021/07/09 08:47:34;;;;;;;4.43;2.25;;;20.40;99.90;;;;;;4997166;28;20060;-73
2021/07/09 08:50:02;;;;;;;2.42;2.05;;;20.60;99.90;;;;;;5013989;28;20022;-70
2021/07/09 08:52:28;;;;;;;4.38;2.25;;;20.40;99.90;;;;;;5014736;28;20022;-72
2021/07/09 08:54:54;;;;;;;3.05;1.90;;;20.70;99.90;;;;;;5014851;28;20025;-72
2021/07/09 08:57:19;;;;;;;3.65;2.17;;;20.80;99.90;;;;;;4997083;28;20385;-71
2021/07/09 08:59:45;;;;;;;2.20;2.00;;;21.40;99.90;;;;;;5010627;28;20403;-71
2021/07/09 09:02:11;;;;;;;4.05;2.17;;;21.50;99.90;;;;;;5034034;28;20468;-70
2021/07/09 09:04:38;;;;;;;2.30;1.63;;;21.40;99.90;;;;;;5034319;28;20029;-70
2021/07/09 09:07:08;;;;;;;2.03;1.80;;;21.80;99.90;;;;;;5033880;28;20396;-70
2021/07/09 09:09:38;;;;;;;2.13;1.70;;;22.00;99.90;;;;;;5033738;28;20017;-70
2021/07/09 09:12:06;;;;;;;2.13;1.50;;;22.50;99.90;;;;;;5034228;28;20051;-70
2021/07/09 09:14:38;;;;;;;2.13;1.92;;;23.00;99.90;;;;;;5034359;28;20028;-71
2021/07/09 09:17:31;;;;;;;3.20;2.15;;;21.40;99.90;;;;;;5034352;28;20586;-70
2021/07/09 09:20:12;;;;;;;3.08;1.90;;;20.70;99.90;;;;;;5022211;28;20030;-70
2021/07/09 09:22:49;;;;;;;5.43;2.35;;;21.00;99.90;;;;;;5015081;28;20480;-70
2021/07/09 09:25:16;;;;;;;1.90;1.77;;;21.50;99.90;;;;;;5014261;28;20026;-71
2021/07/09 09:27:42;;;;;;;3.65;2.25;;;21.60;99.90;;;;;;5014251;28;20388;-70
2021/07/09 09:30:13;;;;;;;2.92;2.00;;;22.50;99.90;;;;;;5013581;28;20030;-71
2021/07/09 09:32:46;;;;;;;2.55;1.95;;;22.90;99.90;;;;;;5014194;28;20045;-75
2021/07/09 09:35:19;;;;;;;5.03;2.25;;;22.80;99.90;;;;;;4997222;28;20022;-73
2021/07/09 09:37:57;;;;;;;3.95;1.90;;;23.10;99.90;;;;;;5013410;28;20034;-73
2021/07/09 09:40:25;;;;;;;4.32;2.33;;;23.40;99.90;;;;;;5013006;28;20014;-73
2021/07/09 09:42:51;;;;;;;5.65;2.60;;;23.30;99.90;;;;;;5013621;28;20034;-72
2021/07/09 09:45:22;;;;;;;4.70;2.83;;;23.00;99.90;;;;;;5012850;28;20143;-73
2021/07/09 09:47:49;;;;;;;6.63;2.70;;;22.40;99.90;;;;;;4996489;28;20076;-72
2021/07/09 09:50:17;;;;;;;3.90;3.03;;;21.90;99.90;;;;;;5013124;28;20025;-73
2021/07/09 09:52:48;;;;;;;3.95;3.38;;;21.80;99.90;;;;;;4996093;28;20018;-73
2021/07/09 09:55:31;;;;;;;4.47;3.35;;;21.50;99.90;;;;;;5028542;23;20543;-70
2021/07/09 09:58:13;;;;;;;3.25;3.05;;;21.30;99.90;;;;;;5022042;28;20026;-70
2021/07/09 10:00:41;;;;;;;3.65;3.28;;;22.30;99.90;;;;;;5012760;28;20352;-69
2021/07/09 10:03:07;;;;;;;3.67;3.38;;;22.10;99.90;;;;;;5011637;28;20495;-69
2021/07/09 10:05:39;;;;;;;4.93;3.45;;;21.20;99.90;;;;;;5034085;28;20040;-68
2021/07/09 10:08:10;;;;;;;3.90;3.60;;;21.00;99.90;;;;;;5044481;28;20021;-69
2021/07/09 10:10:36;;;;;;;4.63;3.70;;;21.00;99.90;;;;;;5033583;28;20036;-69
2021/07/09 10:13:03;;;;;;;5.97;4.10;;;20.80;99.90;;;;;;5033052;28;20029;-69
2021/07/09 10:15:30;;;;;;;4.25;3.92;;;20.90;99.90;;;;;;5027382;28;20079;-69
2021/07/09 10:17:57;;;;;;;6.28;3.97;;;21.30;99.90;;;;;;5027261;28;20014;-69
2021/07/09 10:20:23;;;;;;;4.80;4.22;;;21.30;99.90;;;;;;5014794;28;20065;-69
2021/07/09 10:22:49;;;;;;;5.30;4.43;;;21.10;99.90;;;;;;5033414;28;20042;-69
2021/07/09 10:25:17;;;;;;;6.68;4.15;;;20.60;99.90;;;;;;5024593;28;20060;-69
2021/07/09 10:27:44;;;;;;;6.00;3.92;;;20.80;99.90;;;;;;5032958;28;20340;-69
2021/07/09 10:30:10;;;;;;;5.80;4.25;;;20.80;99.90;;;;;;5023586;28;20026;-68
2021/07/09 10:32:38;;;;;;;5.60;3.70;;;20.90;99.90;;;;;;5031526;28;20075;-70
2021/07/09 10:35:28;;;;;;;4.28;3.20;;;20.90;99.90;;;;;;5026342;28;20065;-70
2021/07/09 10:38:07;;;;;;;3.80;3.40;;;20.90;99.90;;;;;;5020340;28;20026;-69
2021/07/09 10:40:33;;;;;;;4.28;3.28;;;21.40;99.90;;;;;;5017860;28;20052;-71
2021/07/09 10:43:00;;;;;;;3.85;3.10;;;21.80;99.90;;;;;;5032655;28;20542;-70
2021/07/09 10:45:26;;;;;;;3.80;3.40;;;22.20;99.90;;;;;;5032845;28;20021;-70
2021/07/09 10:47:51;;;;;;;6.38;3.13;;;22.50;99.90;;;;;;5014842;28;20045;-71
2021/07/09 10:50:42;;;;;;;5.70;3.20;;;22.20;99.90;;;;;;5020090;28;20021;-69
2021/07/09 10:53:10;;;;;;;4.88;2.97;;;21.90;99.90;;;;;;5028215;28;20026;-70
2021/07/09 10:55:40;;;;;;;3.53;3.08;;;22.00;99.90;;;;;;5030757;28;20498;-70
2021/07/09 10:58:16;;;;;;;5.25;3.22;;;22.20;99.90;;;;;;5032339;28;20467;-69
2021/07/09 11:00:58;;;;;;;5.78;3.95;;;22.50;99.90;;;;;;5014934;28;20013;-72
2021/07/09 11:03:37;;;;;;;5.38;3.85;;;22.30;99.90;;;;;;5032574;28;20187;-71
2021/07/09 11:06:10;;;;;;;6.30;4.07;;;22.30;99.90;;;;;;5030035;28;20048;-73
2021/07/09 11:08:51;;;;;;;5.28;3.08;;;22.20;99.90;;;;;;5024474;28;20017;-73
2021/07/09 11:11:36;;;;;;;6.43;3.33;;;22.30;99.90;;;;;;5015582;28;20028;-72
2021/07/09 11:14:22;;;;;;;4.47;3.05;;;22.50;99.90;;;;;;5032793;28;20070;-73
2021/07/09 11:16:58;;;;;;;4.68;3.17;;;22.50;99.90;;;;;;4997550;28;20033;-72
2021/07/09 11:19:34;;;;;;;2.45;2.25;;;22.40;99.90;;;;;;5033360;28;20112;-71
2021/07/09 11:22:05;;;;;;;4.05;2.88;;;22.50;99.90;;;;;;5027181;28;20041;-72
2021/07/09 11:24:34;;;;;;;5.30;2.30;;;23.00;99.90;;;;;;5031369;28;20124;-72
2021/07/09 11:27:03;;;;;;;5.70;2.60;;;24.00;99.90;;;;;;5012196;28;20105;-72
2021/07/09 11:29:36;;;;;;;2.75;2.42;;;25.00;99.90;;;;;;5029354;28;20022;-72
2021/07/09 11:32:10;;;;;;;3.78;2.15;;;25.20;99.90;;;;;;5025761;28;20044;-71
2021/07/09 11:34:44;;;;;;;3.85;2.22;;;25.50;99.90;;;;;;5031611;28;20670;-72
2021/07/09 11:37:19;;;;;;;7.00;2.65;;;25.40;99.90;;;;;;5031814;28;20022;-71
2021/07/09 11:39:45;;;;;;;3.00;2.60;;;25.50;99.90;;;;;;5030941;28;20025;-71
2021/07/09 11:42:12;;;;;;;4.38;2.30;;;25.00;99.90;;;;;;5031361;28;20540;-71
2021/07/09 11:44:41;;;;;;;3.30;1.80;;;24.80;99.90;;;;;;5031201;28;20028;-72
2021/07/09 11:47:08;;;;;;;2.30;2.10;;;24.00;99.90;;;;;;5031514;28;20021;-72
2021/07/09 11:49:36;;;;;;;2.33;2.03;;;24.40;99.90;;;;;;5025116;28;20387;-72
2021/07/09 11:52:11;;;;;;;2.63;2.05;;;24.70;99.90;;;;;;5009904;28;20033;-73
2021/07/09 11:54:42;;;;;;;2.33;2.03;;;24.80;99.90;;;;;;5011732;28;20109;-72
2021/07/09 11:57:10;;;;;;;2.40;2.20;;;25.10;99.90;;;;;;5011953;28;20053;-71
2021/07/09 11:59:38;;;;;;;2.47;1.70;;;25.00;99.90;;;;;;5006596;28;20261;-72
2021/07/09 12:02:05;;;;;;;2.88;1.77;;;25.00;99.90;;;;;;5014205;28;20029;-72
2021/07/09 12:04:33;;;;;;;4.50;1.67;;;26.30;99.90;;;;;;5008120;28;20018;-73
2021/07/09 12:07:34;;;;;;;1.95;1.70;;;27.50;99.90;;;;;;5012048;28;20033;-69
2021/07/09 12:10:19;;;;;;;2.38;1.40;;;28.80;95.50;;;;;;4949449;29;20067;-70
2021/07/09 12:12:54;;;;;;;1.90;1.52;;;28.20;93.80;;;;;;5006891;28;20026;-70
2021/07/09 12:15:26;;;;;;;2.90;1.50;;;27.00;96.70;;;;;;5011395;28;20026;-69
2021/07/09 12:18:04;;;;;;;1.83;1.48;;;26.70;96.20;;;;;;5011127;28;20022;-69
2021/07/09 12:20:47;;;;;;;5.30;1.60;;;28.00;97.10;;;;;;5010626;28;20077;-68
2021/07/09 12:23:17;;;;;;;1.58;1.30;;;28.50;93.40;;;;;;5011236;28;20423;-69
2021/07/09 12:25:49;;;;;;;3.90;1.17;;;29.40;93.20;;;;;;5010835;28;20026;-69
2021/07/09 12:28:23;;;;;;;2.42;1.10;;;30.60;89.50;;;;;;5011149;28;20100;-69
2021/07/09 12:30:51;;;;;;;5.95;1.80;;;29.70;90.20;;;;;;5010965;28;20044;-69
2021/07/09 12:33:26;;;;;;;1.95;1.67;;;26.90;90.80;;;;;;5011470;28;20030;-68
2021/07/09 12:36:02;;;;;;;6.40;1.52;;;25.20;95.00;;;;;;5011323;28;20051;-68
2021/07/09 12:38:33;;;;;;;2.38;1.67;;;24.50;95.80;;;;;;5011618;28;20030;-69
2021/07/09 12:41:07;;;;;;;3.92;1.38;;;25.60;95.80;;;;;;5010564;28;20025;-69
2021/07/09 12:43:49;;;;;;;4.68;1.45;;;27.30;95.40;;;;;;5011506;28;20030;-70
2021/07/09 12:46:19;;;;;;;1.48;1.23;;;29.10;91.00;;;;;;5010911;28;20018;-69
2021/07/09 12:49:04;;;;;;;6.30;1.33;;;27.50;92.90;;;;;;5005627;28;20022;-68
2021/07/09 12:51:33;;;;;;;2.20;1.52;;;27.20;95.10;;;;;;5008675;28;20507;-68
2021/07/09 12:54:04;;;;;;;2.40;1.30;;;28.20;94.20;;;;;;5022132;28;20033;-69
2021/07/09 12:56:41;;;;;;;1.27;1.02;;;28.70;92.10;;;;;;5016520;28;20484;-69
2021/07/09 12:59:25;;;;;;;2.47;1.15;;;28.90;92.00;;;;;;5034146;28;20080;-68
2021/07/09 13:02:24;;;;;;;1.70;1.50;;;27.40;90.00;;;;;;5034240;28;20030;-67
2021/07/09 13:04:49;;;;;;;3.30;1.58;;;26.40;91.70;;;;;;5005373;28;20049;-68
2021/07/09 13:07:20;;;;;;;1.90;1.40;;;26.30;93.30;;;;;;5034286;28;20075;-69
2021/07/09 13:09:48;;;;;;;3.17;1.30;;;26.30;93.00;;;;;;5033952;28;20060;-68
2021/07/09 13:12:19;;;;;;;3.20;1.63;;;26.10;94.10;;;;;;5032293;28;20558;-68
2021/07/09 13:14:58;;;;;;;1.83;1.60;;;26.00;92.60;;;;;;5014124;28;20022;-68
2021/07/09 13:17:25;;;;;;;1.40;1.30;;;26.00;93.00;;;;;;5014232;28;20488;-73
2021/07/09 13:20:09;;;;;;;4.50;1.58;;;26.00;95.30;;;;;;5002217;28;20034;-74
2021/07/09 13:22:49;;;;;;;2.63;1.48;;;27.10;90.90;;;;;;4983677;28;20022;-75
2021/07/09 13:25:18;;;;;;;1.50;1.40;;;26.90;92.80;;;;;;5002393;28;20033;-74
2021/07/09 13:28:10;;;;;;;1.67;1.30;;;26.70;93.60;;;;;;5003013;28;20444;-74
2021/07/09 13:30:39;;;;;;;2.30;1.50;;;26.80;95.40;;;;;;4984482;28;20024;-74
2021/07/09 13:33:12;;;;;;;2.72;1.50;;;27.00;93.10;;;;;;5002310;28;20037;-72
2021/07/09 13:35:38;;;;;;;1.60;1.20;;;26.70;91.00;;;;;;5002668;28;20102;-72
2021/07/09 13:38:04;;;;;;;2.38;1.70;;;25.60;93.20;;;;;;5003078;28;20061;-72
2021/07/09 13:40:29;;;;;;;1.88;1.50;;;25.50;96.20;;;;;;5003050;28;20064;-74
2021/07/09 13:42:55;;;;;;;3.45;1.77;;;25.60;95.60;;;;;;5004166;28;20029;-74
2021/07/09 13:45:21;;;;;;;2.70;1.98;;;25.50;94.00;;;;;;5003689;28;20045;-75
2021/07/09 13:47:46;;;;;;;1.52;1.42;;;25.70;93.00;;;;;;5004114;28;20436;-76
2021/07/09 13:50:12;;;;;;;2.25;1.30;;;26.00;94.80;;;;;;4984100;28;20425;-76
2021/07/09 13:52:40;;;;;;;5.57;1.13;;;26.40;95.00;;;;;;5003850;28;20022;-75
2021/07/09 13:55:06;;;;;;;2.90;1.42;;;26.20;94.00;;;;;;5003666;28;20026;-75
2021/07/09 13:57:32;;;;;;;1.20;1.10;;;26.10;93.10;;;;;;5001807;28;20433;-70
2021/07/09 13:59:57;;;;;;;1.30;1.20;;;25.90;93.00;;;;;;5002900;28;20029;-71
2021/07/09 14:02:23;;;;;;;2.97;1.60;;;25.40;94.40;;;;;;5005326;28;20438;-78
2021/07/09 14:04:49;;;;;;;1.95;1.60;;;25.90;94.80;;;;;;5006145;28;20036;-78
2021/07/09 14:07:14;;;;;;;2.85;1.90;;;26.00;93.60;;;;;;4988519;28;20024;-74
2021/07/09 14:09:40;;;;;;;3.38;1.77;;;25.70;94.70;;;;;;5004889;28;20022;-73
2021/07/09 14:12:08;;;;;;;1.98;1.77;;;25.90;95.80;;;;;;5016301;28;20022;-79
2021/07/09 14:14:35;;;;;;;3.20;1.70;;;26.20;95.10;;;;;;5007918;28;20053;-78
2021/07/09 14:17:02;;;;;;;1.73;1.63;;;26.60;96.30;;;;;;5005665;28;20022;-76
2021/07/09 14:19:27;;;;;;;10.45;2.20;;;26.50;95.30;;;;;;5005565;28;20023;-75
2021/07/09 14:21:53;;;;;;;2.53;1.85;;;26.10;96.30;;;;;;5002046;28;20053;-75
2021/07/09 14:24:19;;;;;;;2.47;1.90;;;25.50;96.80;;;;;;5003427;28;20033;-76
2021/07/09 14:26:44;;;;;;;6.47;2.50;;;25.00;98.60;;;;;;5006294;28;20030;-72
2021/07/09 14:29:10;;;;;;;2.88;2.38;;;24.70;98.90;;;;;;4985290;28;20031;-70
2021/07/09 14:31:36;;;;;;;3.85;2.00;;;24.60;99.90;;;;;;5002976;28;20018;-74
2021/07/09 14:34:03;;;;;;;3.90;2.25;;;24.30;99.90;;;;;;5002140;28;20037;-72
2021/07/09 14:36:29;;;;;;;4.03;2.30;;;24.40;99.90;;;;;;5000892;28;20384;-74
2021/07/09 14:38:55;;;;;;;5.57;2.15;;;24.50;99.90;;;;;;5003215;28;20037;-72
2021/07/09 14:41:21;;;;;;;2.75;2.30;;;24.20;99.90;;;;;;4983895;28;20033;-72
2021/07/09 14:43:47;;;;;;;2.47;2.10;;;24.00;99.90;;;;;;5004734;28;20026;-73
2021/07/09 14:46:13;;;;;;;2.42;1.92;;;23.80;99.90;;;;;;5001183;28;20019;-73
2021/07/09 14:48:39;;;;;;;2.30;2.10;;;23.60;99.90;;;;;;5003104;28;20115;-73
2021/07/09 14:51:04;;;;;;;3.45;2.47;;;23.50;99.90;;;;;;4999903;28;20053;-72
2021/07/09 14:53:30;;;;;;;3.38;2.20;;;23.20;99.90;;;;;;5000229;28;20029;-72
2021/07/09 14:55:56;;;;;;;3.50;2.33;;;23.00;99.90;;;;;;5000429;28;20635;-72
2021/07/09 14:58:21;;;;;;;2.08;1.88;;;22.90;99.90;;;;;;5001304;28;20026;-72
2021/07/09 15:00:47;;;;;;;3.70;1.92;;;22.90;99.90;;;;;;5001257;28;20544;-73
2021/07/09 15:03:13;;;;;;;2.78;2.22;;;22.60;99.90;;;;;;4999973;28;20022;-75
2021/07/09 15:05:38;;;;;;;2.40;2.20;;;22.50;99.90;;;;;;4985658;28;20018;-73
2021/07/09 15:08:04;;;;;;;4.10;2.15;;;22.40;99.90;;;;;;5003048;28;20030;-74
2021/07/09 15:10:30;;;;;;;4.25;2.30;;;22.50;99.90;;;;;;4999302;28;20030;-74
2021/07/09 15:12:56;;;;;;;3.38;2.00;;;22.50;99.90;;;;;;5002102;28;20525;-71
2021/07/09 15:15:21;;;;;;;2.40;2.00;;;22.60;99.90;;;;;;4982930;28;20026;-73
2021/07/09 15:17:49;;;;;;;3.85;2.25;;;22.60;99.90;;;;;;4999841;28;20025;-72
2021/07/09 15:20:15;;;;;;;3.03;1.95;;;22.70;99.90;;;;;;4998892;28;20053;-73
2021/07/09 15:22:41;;;;;;;1.98;1.88;;;22.80;99.90;;;;;;5000767;28;20054;-75
2021/07/09 15:25:08;;;;;;;1.58;1.48;;;23.00;99.90;;;;;;5000876;28;20030;-74
2021/07/09 15:27:34;;;;;;;3.75;1.50;;;22.80;99.90;;;;;;4999287;28;20452;-74
2021/07/09 15:30:03;;;;;;;2.72;1.45;;;22.80;99.90;;;;;;5000207;28;20030;-73
2021/07/09 15:32:29;;;;;;;1.40;1.30;;;23.10;99.90;;;;;;5001478;28;20041;-74
2021/07/09 15:34:54;;;;;;;1.17;1.02;;;24.00;99.90;;;;;;5001376;28;20097;-72
2021/07/09 15:37:20;;;;;;;1.67;0.93;;;24.40;99.10;;;;;;5000277;28;20376;-73
2021/07/09 15:39:46;;;;;;;1.63;0.88;;;25.30;96.70;;;;;;4999250;28;20054;-73
2021/07/09 15:42:12;;;;;;;0.80;0.70;;;26.90;94.80;;;;;;5001989;28;20101;-71
2021/07/09 15:44:38;;;;;;;0.63;0.63;;;28.40;93.60;;;;;;4998064;28;20037;-68
2021/07/09 15:47:06;;;;;;;0.95;0.80;;;28.20;91.80;;;;;;5011505;28;20045;-68
2021/07/09 15:49:32;;;;;;;1.13;0.73;;;28.60;91.30;;;;;;5010944;28;20025;-69
2021/07/09 15:51:58;;;;;;;3.08;1.08;;;29.10;90.70;;;;;;5011325;28;20030;-69
2021/07/09 15:54:23;;;;;;;2.15;0.85;;;28.80;90.30;;;;;;5011483;28;20494;-69
2021/07/09 15:56:49;;;;;;;1.08;0.77;;;27.80;91.40;;;;;;5012016;28;20495;-69
2021/07/09 15:59:15;;;;;;;1.30;0.80;;;26.60;93.00;;;;;;5011538;28;20420;-70
2021/07/09 16:01:40;;;;;;;3.92;0.80;;;25.70;94.90;;;;;;5011043;28;20384;-69
2021/07/09 16:04:06;;;;;;;1.67;1.05;;;25.10;96.50;;;;;;5011236;28;20160;-69
2021/07/09 16:06:32;;;;;;;1.27;1.17;;;25.80;94.80;;;;;;5010331;28;20026;-69
2021/07/09 16:08:57;;;;;;;3.42;1.17;;;25.30;94.90;;;;;;5015007;28;20057;-69
2021/07/09 16:11:23;;;;;;;1.77;1.00;;;25.60;96.10;;;;;;5013539;28;20412;-69
2021/07/09 16:13:49;;;;;;;1.33;1.08;;;26.00;95.40;;;;;;5011597;28;20455;-69
2021/07/09 16:16:14;;;;;;;2.08;1.25;;;27.00;94.40;;;;;;5010987;28;20069;-70
2021/07/09 16:18:40;;;;;;;1.50;1.13;;;28.40;92.20;;;;;;5010828;28;20508;-68
2021/07/09 16:21:06;;;;;;;2.28;1.30;;;29.50;91.10;;;;;;5010578;28;20586;-68
2021/07/09 16:23:32;;;;;;;0.75;0.75;;;32.40;85.00;;;;;;5011412;28;20034;-68
2021/07/09 16:25:58;;;;;;;1.38;0.90;;;33.00;81.50;;;;;;5010405;28;20030;-68
2021/07/09 16:28:24;;;;;;;1.27;1.17;;;31.80;80.70;;;;;;5011220;28;20102;-67
2021/07/09 16:30:49;;;;;;;1.33;1.10;;;30.60;81.70;;;;;;5013890;28;20072;-67